createdAt,value
2022-09-20T00:00:14.047Z,10.87
2022-09-20T00:02:40.444Z,12.23
2022-09-20T00:05:08.507Z,12.17
2022-09-20T00:07:35.163Z,10.87
2022-09-20T00:10:01.681Z,12.00
2022-09-20T00:12:28.179Z,10.90
2022-09-20T00:14:54.715Z,10.03
2022-09-20T00:17:21.129Z,11.27
2022-09-20T00:19:47.627Z,10.37
2022-09-20T00:22:14.018Z,13.40
2022-09-20T00:24:40.442Z,13.33
2022-09-20T00:27:06.837Z,9.10
2022-09-20T00:29:33.339Z,9.40
2022-09-20T00:31:59.816Z,8.63
2022-09-20T00:34:45.161Z,8.67
2022-09-20T00:37:11.697Z,8.83
2022-09-20T00:39:38.112Z,8.17
2022-09-20T00:42:04.599Z,8.37
2022-09-20T00:44:49.819Z,8.90
2022-09-20T00:47:36.594Z,8.03
2022-09-20T00:50:06.017Z,9.03
2022-09-20T00:52:32.489Z,8.70
2022-09-20T00:54:59.037Z,10.50
2022-09-20T00:57:25.535Z,8.30
2022-09-20T00:59:51.975Z,8.03
2022-09-20T01:02:20.350Z,9.20
2022-09-20T01:04:46.882Z,8.30
2022-09-20T01:07:13.830Z,8.87
2022-09-20T01:09:40.273Z,9.23
2022-09-20T01:12:07.833Z,9.03
2022-09-20T01:14:34.267Z,10.30
2022-09-20T01:17:02.791Z,9.90
2022-09-20T01:19:38.645Z,11.33
2022-09-20T01:22:06.200Z,10.10
2022-09-20T01:24:40.524Z,14.70
2022-09-20T01:27:10.493Z,10.17
2022-09-20T01:29:57.961Z,12.43
2022-09-20T01:32:24.695Z,11.03
2022-09-20T01:34:54.775Z,8.73
2022-09-20T01:37:21.197Z,10.33
2022-09-20T01:40:06.608Z,10.50
2022-09-20T01:42:33.956Z,10.30
2022-09-20T01:45:07.604Z,9.67
2022-09-20T01:47:46.371Z,9.03
2022-09-20T01:50:31.751Z,8.93
2022-09-20T01:52:58.185Z,10.70
2022-09-20T01:55:43.383Z,9.20
2022-09-20T01:58:12.820Z,8.30
2022-09-20T02:00:39.221Z,7.57
2022-09-20T02:03:14.687Z,7.23
2022-09-20T02:05:47.956Z,7.40
2022-09-20T02:08:19.301Z,6.93
2022-09-20T02:10:52.280Z,7.07
2022-09-20T02:13:28.329Z,7.50
2022-09-20T02:16:00.914Z,9.33
2022-09-20T02:18:33.408Z,7.60
2022-09-20T02:20:59.784Z,7.07
2022-09-20T02:23:34.055Z,8.67
2022-09-20T02:26:12.054Z,7.90
2022-09-20T02:28:44.794Z,7.90
2022-09-20T02:31:29.746Z,8.20
2022-09-20T02:34:00.179Z,8.83
2022-09-20T02:36:27.302Z,9.27
2022-09-20T02:38:54.118Z,9.13
2022-09-20T02:41:23.555Z,8.30
2022-09-20T02:43:49.961Z,9.27
2022-09-20T02:46:30.369Z,8.63
2022-09-20T02:49:12.341Z,8.07
2022-09-20T02:51:43.973Z,6.90
2022-09-20T02:54:16.544Z,7.07
2022-09-20T02:56:45.589Z,7.03
2022-09-20T02:59:31.013Z,7.47
2022-09-20T03:02:14.639Z,6.83
2022-09-20T03:04:46.048Z,6.93
2022-09-20T03:07:42.037Z,9.07
2022-09-20T03:10:14.389Z,7.57
2022-09-20T03:12:40.814Z,8.00
2022-09-20T03:15:11.231Z,7.27
2022-09-20T03:17:43.840Z,7.40
2022-09-20T03:20:31.517Z,8.77
2022-09-20T03:23:00.079Z,7.00
2022-09-20T03:25:45.126Z,6.87
2022-09-20T03:28:11.739Z,9.43
2022-09-20T03:30:44.213Z,9.07
2022-09-20T03:33:13.029Z,8.93
2022-09-20T03:35:58.484Z,10.47
2022-09-20T03:38:43.784Z,8.40
2022-09-20T03:41:10.216Z,7.33
2022-09-20T03:43:36.621Z,7.00
2022-09-20T03:46:04.404Z,6.47
2022-09-20T03:48:36.465Z,7.53
2022-09-20T03:51:38.681Z,6.63
2022-09-20T03:54:23.256Z,7.23
2022-09-20T03:57:05.123Z,6.80
2022-09-20T03:59:50.490Z,6.60
2022-09-20T04:02:27.181Z,6.37
2022-09-20T04:05:02.869Z,6.30
2022-09-20T04:07:29.289Z,7.20
2022-09-20T04:10:14.571Z,8.37
2022-09-20T04:12:42.834Z,7.30
2022-09-20T04:15:21.677Z,7.63
2022-09-20T04:17:51.007Z,7.97
2022-09-20T04:20:23.971Z,7.90
2022-09-20T04:22:51.438Z,7.70
2022-09-20T04:25:19.285Z,10.37
2022-09-20T04:27:47.221Z,6.57
2022-09-20T04:30:17.789Z,7.30
2022-09-20T04:32:47.261Z,6.40
2022-09-20T04:35:32.381Z,7.47
2022-09-20T04:37:59.633Z,6.60
2022-09-20T04:40:31.255Z,8.33
2022-09-20T04:43:32.011Z,6.67
2022-09-20T04:46:16.489Z,8.77
2022-09-20T04:48:42.928Z,12.07
2022-09-20T04:51:28.584Z,9.17
2022-09-20T04:54:01.017Z,6.43
2022-09-20T04:56:33.599Z,7.33
2022-09-20T04:59:10.332Z,5.70
2022-09-20T05:01:39.983Z,6.87
2022-09-20T05:04:06.443Z,6.87
2022-09-20T05:06:39.109Z,5.97
2022-09-20T05:09:24.369Z,7.63
2022-09-20T05:11:56.811Z,14.33
2022-09-20T05:14:36.494Z,8.63
2022-09-20T05:17:15.173Z,7.13
2022-09-20T05:19:43.722Z,7.90
2022-09-20T05:22:17.539Z,7.43
2022-09-20T05:24:44.307Z,10.07
2022-09-20T05:27:20.022Z,8.27
2022-09-20T05:29:51.291Z,7.90
2022-09-20T05:32:18.498Z,7.73
2022-09-20T05:37:29.694Z,7.63
2022-09-20T05:40:13.227Z,8.90
2022-09-20T05:42:54.135Z,8.77
2022-09-20T05:45:23.859Z,8.97
2022-09-20T05:47:56.360Z,8.00
2022-09-20T05:50:41.794Z,7.83
2022-09-20T05:53:20.495Z,8.80
2022-09-20T05:55:50.783Z,8.50
2022-09-20T05:58:29.584Z,7.97
2022-09-20T06:01:01.077Z,9.17
2022-09-20T06:03:33.589Z,8.73
2022-09-20T06:06:00.118Z,9.47
2022-09-20T06:08:29.639Z,9.90
2022-09-20T06:11:00.197Z,10.80
2022-09-20T06:13:36.089Z,9.87
2022-09-20T06:16:04.577Z,10.63
2022-09-20T06:18:36.619Z,11.67
2022-09-20T06:21:21.888Z,9.70
2022-09-20T06:23:48.374Z,10.30
2022-09-20T06:26:17.424Z,10.27
2022-09-20T06:28:48.595Z,11.53
2022-09-20T06:31:17.434Z,13.67
2022-09-20T06:33:45.354Z,11.53
2022-09-20T06:36:39.809Z,11.17
2022-09-20T06:39:48.896Z,11.93
2022-09-20T06:42:15.735Z,11.77
2022-09-20T06:44:43.428Z,12.23
2022-09-20T06:47:13.967Z,11.67
2022-09-20T06:49:42.870Z,12.57
2022-09-20T06:52:15.809Z,11.47
2022-09-20T06:54:45.917Z,12.23
2022-09-20T06:57:19.881Z,11.97
2022-09-20T06:59:46.310Z,10.87
2022-09-20T07:02:12.858Z,12.37
2022-09-20T07:04:40.134Z,13.27
2022-09-20T07:07:09.416Z,11.83
2022-09-20T07:09:36.246Z,11.30
2022-09-20T07:12:02.853Z,10.40
2022-09-20T07:14:29.330Z,11.20
2022-09-20T07:16:55.937Z,11.03
2022-09-20T07:19:23.503Z,11.83
2022-09-20T07:21:50.018Z,10.87
2022-09-20T07:24:16.556Z,10.97
2022-09-20T07:26:54.804Z,12.37
2022-09-20T07:29:21.524Z,11.23
2022-09-20T07:31:50.782Z,11.60
2022-09-20T07:34:20.566Z,10.80
2022-09-20T07:36:47.610Z,11.00
2022-09-20T07:39:14.173Z,11.53
2022-09-20T07:41:40.629Z,11.23
2022-09-20T07:44:24.548Z,12.17
2022-09-20T07:46:51.911Z,12.47
2022-09-20T07:49:18.694Z,13.73
2022-09-20T07:51:45.333Z,11.83
2022-09-20T07:54:12.035Z,13.17
2022-09-20T07:56:38.776Z,10.13
2022-09-20T07:59:05.974Z,9.60
2022-09-20T08:01:32.628Z,11.87
2022-09-20T08:04:00.633Z,8.77
2022-09-20T08:06:27.198Z,7.97
2022-09-20T08:08:54.548Z,9.77
2022-09-20T08:11:27.815Z,9.47
2022-09-20T08:14:09.757Z,9.63
2022-09-20T08:16:39.981Z,10.53
2022-09-20T08:19:06.601Z,8.67
2022-09-20T08:21:34.245Z,8.33
2022-09-20T08:24:01.100Z,7.43
2022-09-20T08:26:28.101Z,8.20
2022-09-20T08:28:58.220Z,9.03
2022-09-20T08:31:26.007Z,8.33
2022-09-20T08:33:52.638Z,8.93
2022-09-20T08:36:19.762Z,10.33
2022-09-20T08:41:32.887Z,12.33
2022-09-20T08:44:00.277Z,10.03
2022-09-20T08:46:28.893Z,7.47
2022-09-20T08:48:55.934Z,8.30
2022-09-20T08:51:23.458Z,8.23
2022-09-20T08:53:50.872Z,8.20
2022-09-20T08:56:17.615Z,7.23
2022-09-20T08:58:44.112Z,8.10
2022-09-20T09:01:14.702Z,7.07
2022-09-20T09:03:41.198Z,7.87
2022-09-20T09:06:14.197Z,9.33
2022-09-20T09:08:43.028Z,7.33
2022-09-20T09:11:15.948Z,7.37
2022-09-20T09:13:45.520Z,10.17
2022-09-20T09:16:13.033Z,7.17
2022-09-20T09:18:40.200Z,9.20
2022-09-20T09:21:07.516Z,8.20
2022-09-20T09:23:39.841Z,9.23
2022-09-20T09:26:06.329Z,7.53
2022-09-20T09:28:36.976Z,10.03
2022-09-20T09:31:33.209Z,8.13
2022-09-20T09:33:59.798Z,5.17
2022-09-20T09:36:26.384Z,4.23
2022-09-20T09:39:12.868Z,5.50
2022-09-20T09:41:39.331Z,3.30
2022-09-20T09:44:10.478Z,3.60
2022-09-20T09:46:38.052Z,2.93
2022-09-20T09:49:14.050Z,1.77
2022-09-20T09:51:43.209Z,1.93
2022-09-20T09:54:12.617Z,2.40
2022-09-20T09:56:47.459Z,2.80
2022-09-20T09:59:23.007Z,3.30
2022-09-20T10:02:11.104Z,2.27
2022-09-20T10:04:40.128Z,1.87
2022-09-20T10:07:09.380Z,1.83
2022-09-20T10:09:52.096Z,3.63
2022-09-20T10:12:32.292Z,1.60
2022-09-20T10:15:07.289Z,1.50
2022-09-20T10:17:52.939Z,2.70
2022-09-20T10:20:28.758Z,1.40
2022-09-20T10:23:34.470Z,1.03
2022-09-20T10:25:55.092Z,3.10
2022-09-20T10:28:33.864Z,2.07
2022-09-20T10:31:23.465Z,1.53
2022-09-20T10:34:10.822Z,1.43
2022-09-20T10:36:37.265Z,0.90
2022-09-20T10:39:11.299Z,2.00
2022-09-20T10:42:12.331Z,0.53
2022-09-20T10:44:41.632Z,0.93
2022-09-20T10:47:11.893Z,0.97
2022-09-20T10:49:42.198Z,1.10
2022-09-20T10:52:27.488Z,1.00
2022-09-20T10:55:15.905Z,2.03
2022-09-20T10:58:03.426Z,1.17
2022-09-20T11:00:48.897Z,0.97
2022-09-20T11:03:35.609Z,1.70
2022-09-20T11:06:06.653Z,1.83
2022-09-20T11:08:34.223Z,0.70
2022-09-20T11:11:24.090Z,0.80
2022-09-20T11:13:53.412Z,1.33
2022-09-20T11:16:22.953Z,1.10
2022-09-20T11:18:52.244Z,1.50
2022-09-20T11:21:20.684Z,1.73
2022-09-20T11:24:07.472Z,2.13
2022-09-20T11:26:52.725Z,2.60
2022-09-20T11:29:20.569Z,2.80
2022-09-20T11:31:47.419Z,2.10
2022-09-20T11:34:26.757Z,4.57
2022-09-20T11:36:54.788Z,2.00
2022-09-20T11:39:40.384Z,2.23
2022-09-20T11:42:06.912Z,2.33
2022-09-20T11:44:33.473Z,3.33
2022-09-20T11:47:22.883Z,2.83
2022-09-20T11:50:08.283Z,3.23
2022-09-20T11:52:37.652Z,3.33
2022-09-20T11:55:04.352Z,3.63
2022-09-20T11:57:30.888Z,2.13
2022-09-20T11:59:58.846Z,2.35
2022-09-20T12:02:41.794Z,1.40
2022-09-20T12:05:20.611Z,1.05
2022-09-20T12:07:47.089Z,2.95
2022-09-20T12:10:19.894Z,1.63
2022-09-20T12:12:47.241Z,2.20
2022-09-20T12:15:27.114Z,1.23
2022-09-20T12:17:53.569Z,1.33
2022-09-20T12:20:35.306Z,0.80
2022-09-20T12:23:21.435Z,1.00
2022-09-20T12:26:06.922Z,0.60
2022-09-20T12:28:37.790Z,1.15
2022-09-20T12:31:33.671Z,4.20
2022-09-20T12:34:12.355Z,2.50
2022-09-20T12:36:46.888Z,1.83
2022-09-20T12:39:17.532Z,1.53
2022-09-20T12:41:48.344Z,0.80
2022-09-20T12:44:27.222Z,1.85
2022-09-20T12:46:55.298Z,2.83
2022-09-20T12:49:46.572Z,0.80
2022-09-20T12:52:48.228Z,0.87
2022-09-20T12:55:30.227Z,1.40
2022-09-20T12:58:05.840Z,2.65
2022-09-20T13:00:38.989Z,0.80
2022-09-20T13:03:14.870Z,0.80
2022-09-20T13:05:47.968Z,2.10
2022-09-20T13:08:25.290Z,2.55
2022-09-20T13:10:57.980Z,2.10
2022-09-20T13:13:35.622Z,3.30
2022-09-20T13:16:02.310Z,22.98
2022-09-20T13:18:29.136Z,13.10
2022-09-20T13:20:56.059Z,25.80
2022-09-20T13:23:24.696Z,17.55
2022-09-20T13:25:51.420Z,9.43
2022-09-20T13:28:29.836Z,2.65
2022-09-20T13:31:15.215Z,1.90
2022-09-20T13:33:41.646Z,5.63
2022-09-20T13:36:08.164Z,1.90
2022-09-20T13:38:35.006Z,1.23
2022-09-20T13:41:04.002Z,2.45
2022-09-20T13:43:30.405Z,2.97
2022-09-20T13:46:00.884Z,8.52
2022-09-20T13:48:27.695Z,8.30
2022-09-20T13:50:54.963Z,3.85
2022-09-20T13:53:39.746Z,8.43
2022-09-20T13:56:25.626Z,3.88
2022-09-20T13:58:53.019Z,5.68
2022-09-20T14:01:29.433Z,1.60
2022-09-20T14:03:57.555Z,3.13
2022-09-20T14:06:28.268Z,2.97
2022-09-20T14:08:54.912Z,2.70
2022-09-20T14:11:22.568Z,4.53
2022-09-20T14:13:50.003Z,4.35
2022-09-20T14:16:16.584Z,7.15
2022-09-20T14:18:43.187Z,3.67
2022-09-20T14:21:10.042Z,4.03
2022-09-20T14:23:52.654Z,6.70
2022-09-20T14:26:23.369Z,1.63
2022-09-20T14:28:50.009Z,2.25
2022-09-20T14:31:17.489Z,2.38
2022-09-20T14:33:45.220Z,2.03
2022-09-20T14:36:13.156Z,1.88
2022-09-20T14:38:39.672Z,1.83
2022-09-20T14:41:06.375Z,1.65
2022-09-20T14:43:33.986Z,3.72
2022-09-20T14:46:02.856Z,2.17
2022-09-20T14:48:33.575Z,7.07
2022-09-20T14:51:22.169Z,5.70
2022-09-20T14:53:49.759Z,5.65
2022-09-20T14:56:16.820Z,8.75
2022-09-20T14:59:03.418Z,4.53
2022-09-20T15:01:29.959Z,4.00
2022-09-20T15:03:57.101Z,7.88
2022-09-20T15:06:23.551Z,4.00
2022-09-20T15:08:49.988Z,3.05
2022-09-20T15:11:16.912Z,1.30
2022-09-20T15:13:43.404Z,3.17
2022-09-20T15:16:10.824Z,2.40
2022-09-20T15:18:39.746Z,2.00
2022-09-20T15:21:06.384Z,9.80
2022-09-20T15:23:33.075Z,13.52
2022-09-20T15:26:00.402Z,8.40
2022-09-20T15:28:27.918Z,18.75
2022-09-20T15:30:54.478Z,4.80
2022-09-20T15:33:21.161Z,6.00
2022-09-20T15:35:47.804Z,2.45
2022-09-20T15:38:15.298Z,5.22
2022-09-20T15:40:42.255Z,5.30
2022-09-20T15:43:11.630Z,3.40
2022-09-20T15:45:41.415Z,3.58
2022-09-20T15:48:08.520Z,3.03
2022-09-20T15:50:35.008Z,2.40
2022-09-20T15:53:01.655Z,4.75
2022-09-20T15:55:28.178Z,3.10
2022-09-20T15:57:54.666Z,4.28
2022-09-20T16:00:21.255Z,5.43
2022-09-20T16:02:50.899Z,6.85
2022-09-20T16:05:17.501Z,4.68
2022-09-20T16:07:44.116Z,2.92
2022-09-20T16:10:10.574Z,4.53
2022-09-20T16:12:37.286Z,4.72
2022-09-20T16:15:04.090Z,6.53
2022-09-20T16:17:56.944Z,5.25
2022-09-20T16:20:23.652Z,2.70
2022-09-20T16:22:50.359Z,4.82
2022-09-20T16:25:16.867Z,4.93
2022-09-20T16:27:43.355Z,3.58
2022-09-20T16:30:10.477Z,6.82
2022-09-20T16:32:37.479Z,6.47
2022-09-20T16:35:07.229Z,7.75
2022-09-20T16:37:33.770Z,6.38
2022-09-20T16:40:00.638Z,4.30
2022-09-20T16:42:27.664Z,4.57
2022-09-20T16:44:54.239Z,3.10
2022-09-20T16:47:23.373Z,7.28
2022-09-20T16:49:51.037Z,4.00
2022-09-20T16:52:18.042Z,4.72
2022-09-20T16:54:45.090Z,3.75
2022-09-20T16:57:13.427Z,3.25
2022-09-20T16:59:39.953Z,5.00
2022-09-20T17:02:06.717Z,3.30
2022-09-20T17:04:33.424Z,5.30
2022-09-20T17:07:02.615Z,5.50
2022-09-20T17:09:29.250Z,4.28
2022-09-20T17:11:55.966Z,3.97
2022-09-20T17:14:23.179Z,4.32
2022-09-20T17:16:50.581Z,6.25
2022-09-20T17:19:19.064Z,4.38
2022-09-20T17:21:50.848Z,8.82
2022-09-20T17:24:21.861Z,8.27
2022-09-20T17:26:49.518Z,5.45
2022-09-20T17:29:18.137Z,5.45
2022-09-20T17:31:48.747Z,6.70
2022-09-20T17:34:21.755Z,6.60
2022-09-20T17:36:48.785Z,5.60
2022-09-20T17:39:15.514Z,6.72
2022-09-20T17:41:48.556Z,9.13
2022-09-20T17:44:17.742Z,7.50
2022-09-20T17:46:45.402Z,5.50
2022-09-20T17:49:12.960Z,5.18
2022-09-20T17:51:40.311Z,9.68
2022-09-20T17:54:07.918Z,5.35
2022-09-20T17:56:37.238Z,7.15
2022-09-20T17:59:04.246Z,9.23
2022-09-20T18:01:31.074Z,17.25
2022-09-20T18:04:00.370Z,26.15
2022-09-20T18:06:30.960Z,33.35
2022-09-20T18:08:59.392Z,22.00
2022-09-20T18:11:35.943Z,15.75
2022-09-20T18:14:02.903Z,13.27
2022-09-20T18:16:31.275Z,16.77
2022-09-20T18:18:59.386Z,15.60
2022-09-20T18:21:29.226Z,15.13
2022-09-20T18:23:56.390Z,11.57
2022-09-20T18:26:30.842Z,11.00
2022-09-20T18:29:05.035Z,11.00
2022-09-20T18:31:32.517Z,11.65
2022-09-20T18:34:00.729Z,15.60
2022-09-20T18:36:28.235Z,17.73
2022-09-20T18:38:55.263Z,20.48
2022-09-20T18:41:24.160Z,21.20
2022-09-20T18:43:51.108Z,20.13
2022-09-20T18:46:21.494Z,21.17
2022-09-20T18:48:48.798Z,21.27
2022-09-20T18:51:16.054Z,26.50
2022-09-20T18:53:43.400Z,21.85
2022-09-20T18:56:13.190Z,17.80
2022-09-20T18:58:40.340Z,14.32
2022-09-20T19:01:26.096Z,11.40
2022-09-20T19:03:58.606Z,14.70
2022-09-20T19:06:25.521Z,13.85
2022-09-20T19:09:02.368Z,17.37
2022-09-20T19:11:37.418Z,15.83
2022-09-20T19:14:06.733Z,16.45
2022-09-20T19:16:37.221Z,20.33
2022-09-20T19:19:21.929Z,19.85
2022-09-20T19:22:24.358Z,21.83
2022-09-20T19:25:06.550Z,23.15
2022-09-20T19:27:33.308Z,22.40
2022-09-20T19:29:59.920Z,15.43
2022-09-20T19:32:27.903Z,13.55
2022-09-20T19:35:01.803Z,11.95
2022-09-20T19:37:39.037Z,9.75
2022-09-20T19:40:23.064Z,8.45
2022-09-20T19:43:09.496Z,9.48
2022-09-20T19:45:40.680Z,9.90
2022-09-20T19:48:27.442Z,10.10
2022-09-20T19:50:54.659Z,8.70
2022-09-20T19:53:27.701Z,8.93
2022-09-20T19:55:58.728Z,13.20
2022-09-20T19:58:25.882Z,11.18
2022-09-20T20:00:53.088Z,13.10
2022-09-20T20:03:20.010Z,12.07
2022-09-20T20:05:48.382Z,12.33
2022-09-20T20:08:20.157Z,14.40
2022-09-20T20:10:58.902Z,16.80
2022-09-20T20:13:50.911Z,13.85
2022-09-20T20:16:19.541Z,12.82
2022-09-20T20:19:08.304Z,14.07
2022-09-20T20:21:48.057Z,12.70
2022-09-20T20:24:26.662Z,10.93
2022-09-20T20:26:53.104Z,10.43
2022-09-20T20:29:19.862Z,15.98
2022-09-20T20:31:46.365Z,13.10
2022-09-20T20:34:16.263Z,10.17
2022-09-20T20:36:45.777Z,11.10
2022-09-20T20:39:13.232Z,11.97
2022-09-20T20:41:40.814Z,12.20
2022-09-20T20:44:07.242Z,14.40
2022-09-20T20:46:34.966Z,9.33
2022-09-20T20:49:05.189Z,5.27
2022-09-20T20:51:34.629Z,10.87
2022-09-20T20:54:01.118Z,11.60
2022-09-20T20:56:28.799Z,9.03
2022-09-20T20:58:55.639Z,12.03
2022-09-20T21:01:22.922Z,13.00
2022-09-20T21:03:50.014Z,9.77
2022-09-20T21:06:16.566Z,8.37
2022-09-20T21:08:48.864Z,9.07
2022-09-20T21:11:20.474Z,13.17
2022-09-20T21:13:49.852Z,7.80
2022-09-20T21:16:17.920Z,11.03
2022-09-20T21:18:45.013Z,8.47
2022-09-20T21:21:21.836Z,13.83
2022-09-20T21:23:49.310Z,13.70
2022-09-20T21:26:15.984Z,11.00
2022-09-20T21:28:43.456Z,11.17
2022-09-20T21:31:10.344Z,12.43
2022-09-20T21:33:37.808Z,12.97
2022-09-20T21:36:04.448Z,16.87
2022-09-20T21:38:33.857Z,18.67
2022-09-20T21:41:04.076Z,10.67
2022-09-20T21:43:30.844Z,11.40
2022-09-20T21:45:58.464Z,18.27
2022-09-20T21:48:28.079Z,16.73
2022-09-20T21:51:01.578Z,16.67
2022-09-20T21:53:28.055Z,16.83
2022-09-20T21:55:58.606Z,11.80
2022-09-20T21:58:25.198Z,10.70
2022-09-20T22:01:00.956Z,15.20
2022-09-20T22:03:34.322Z,13.73
2022-09-20T22:06:04.754Z,14.23
2022-09-20T22:08:31.230Z,20.47
2022-09-20T22:10:57.839Z,17.93
2022-09-20T22:13:24.350Z,19.93
2022-09-20T22:15:51.536Z,18.03
2022-09-20T22:18:18.098Z,16.27
2022-09-20T22:20:45.680Z,16.10
2022-09-20T22:23:12.124Z,21.07
2022-09-20T22:25:38.568Z,14.63
2022-09-20T22:28:05.107Z,13.90
2022-09-20T22:30:31.616Z,13.80
2022-09-20T22:32:58.111Z,11.57
2022-09-20T22:35:24.619Z,11.00
2022-09-20T22:37:51.042Z,12.17
2022-09-20T22:40:17.593Z,11.00
2022-09-20T22:42:44.078Z,12.43
2022-09-20T22:45:10.838Z,11.10
2022-09-20T22:47:37.587Z,11.17
2022-09-20T22:50:04.196Z,10.37
2022-09-20T22:52:30.730Z,10.53
2022-09-20T22:54:58.419Z,9.03
2022-09-20T22:57:24.878Z,10.87
2022-09-20T22:59:51.347Z,7.90
2022-09-20T23:02:17.807Z,7.67
2022-09-20T23:04:44.226Z,8.97
2022-09-20T23:07:11.043Z,8.67
2022-09-20T23:09:37.456Z,8.50
2022-09-20T23:12:03.996Z,9.27
2022-09-20T23:14:30.497Z,10.67
2022-09-20T23:16:57.001Z,11.70
2022-09-20T23:19:23.556Z,13.47
2022-09-20T23:21:50.074Z,13.67
2022-09-20T23:24:16.821Z,11.27
2022-09-20T23:26:43.455Z,12.77
2022-09-20T23:29:13.863Z,11.50
2022-09-20T23:31:41.097Z,13.70
2022-09-20T23:34:08.191Z,12.77
2022-09-20T23:36:35.941Z,12.30
2022-09-20T23:39:02.633Z,12.73
2022-09-20T23:41:29.099Z,15.80
2022-09-20T23:43:55.549Z,12.40
2022-09-20T23:46:22.717Z,12.10
2022-09-20T23:48:50.554Z,10.60
2022-09-20T23:51:17.766Z,12.13
2022-09-20T23:53:44.243Z,7.63
2022-09-20T23:56:10.934Z,8.07
2022-09-20T23:58:37.451Z,7.00
